Sleaford, United Kingdom
Current Conditions -  °F | °C
As of 8:07 AM on Tuesday 21 Oct 2014 (Local Time) from EGYD Reporting Station
Light Rain Light Rain  
Wind Chill: 54°   Ceiling: 4000
Heat Index: 54°   Visibility: 6mi
Dew Point: 50°   Wind: 32mph
Humidity: 88%   Direction: 270°W
Pressure: 29.38"   Gusts: 54mph
Location:  53°N, 0.41°W
Report Text: EGYD 210707Z 27028G47KT 9999 -RA FEW012 BKN040 12/10 Q0995 RERA BLU TEMPO 6000 RA SCT012 GRN
Loading
Personal Weather Stations






























Interactive Weather Map
Tropical Storm Tracking
New forecast layout! Learn more

10-Day Weather Forecast

Advertisements
Track Severe Weather on mobile